Sunday, August 31, 2014
02:20 UTC
  |  Log In   |  Register Free
Airport Search:

Coleman Municipal Airport
(KCOM)

Coleman Municipal Airport Diagram
No Airport Diagram Available

FAA data valid effective July 24, 2014 until September 18, 2014 (unless otherwise noted).

 
 
 
 
 
 
 
 
 
 
 
 
 
 

Current Aviation Weather for Coleman Municipal Airport (KCOM)

The most recent METAR observation for KCOM was updated at: 0055 UTC
METAR Summary (Translated METAR)
KCOM
310055Z AUTO 14010KT 10SM CLR 32/17 A2991 RMK AO2 LTG DSNT SW T03170174
KBWD
(23 nm SE from KCOM)
310055Z AUTO 13006KT 10SM CLR 30/19 A2991 RMK AO2
TAF Summary (Translated TAF)
KABI
(37 nm NW from KCOM)
301735Z 3018/3118 35006KT P6SM SCT060 FM302200 10006KT P6SM FEW070 FM310600 17008KT P6SM SKC FM311500 18013G20KT P6SM SCT070
  Airport Weather Conditions for KCOM

 Current Weather at COM
86° F
Fair
Southeast winds at 10.4 mph
COM NOAA Radar

Pressure: 29.94 in
Humidity: 48%
Wind: Southeast at 10.4 MPH (9 KT)
Dew Point: 63.9°F
Visibility: 10.00 mi


Airport Weather Forecast for KCOM

Translated METAR and TAF for KCOM
Translated METAR for KCOM (0214 UTC 31 August 2014)
found at http://aviationweather.gov/adds/metars/
 
METAR text: KCOM 310155Z AUTO 14009KT 10SM CLR 30/18 A2994 RMK AO2 LTG DSNT SW T03000177
Conditions at: KCOM (COLEMAN MUNI , TX, US) observed 0155 UTC 31 August 2014
Temperature: 30.0°C (86°F)
Dewpoint: 17.7°C (64°F) [RH = 48%]
Pressure (altimeter): 29.94 inches Hg (1014.0 mb)
Winds: from the SE (140 degrees) at 10 MPH (9 knots; 4.7 m/s)
Visibility: 10 or more miles (16+ km)
Ceiling: at least 12,000 feet AGL
Clouds: sky clear below 12,000 feet AGL
Weather: automated observation with no human augmentation;
there may or may not be significant weather present at this time
Translated TAF for KCOM

There is no translated TAF available for this airport

Find All Airport Services Find A Hotel Find A Rental Car Find A Golf Course Find A Restaurant $100 Hamburger



FBO's on the Field
FBO Company Facility Photos Services Transportation Aviation Fuel Prices: Prices include tax
Catering Weather Repair Courtesy Rental Type 100LL JetA JetA+ MOGAS 8087
 
Add another FBO Facility Photos Catering Weather Repair Courtesy Rental Type 100LL JetA JetA+ MOGAS 8087
Services Transportation Aviation Fuel Prices: Prices include tax
There are no FBO's currently reporting fuel at COM. List your FBO now


GlobalAir.com Airport Resource Center model-print
model-print
model-print
model-print